KTPH/TPH METAR and TAF weather

Enter ICAO airport designator
Station Type Date Time Source
KTPH METAR 2019/06/17 06:56 UTC NOAA

KTPH 170656Z AUTO 02015KT 10SM CLR 16/09 A3004 RMK AO2 SLP095 T01560089


Station Type Date Time Source
KTPH Decoded METAR 2019/06/17 06:56 UTC NOAA

TONOPAH AIRPORT, NV, United States (KTPH) 38-02N 117-05W 1652M
Jun 17, 2019 - 02:56 AM EDT / 2019.06.17 0656 UTC
Wind: from the NNE (020 degrees) at 17 MPH (15 KT):0
Visibility: 10 mile(s):0
Sky conditions: clear
Temperature: 60.1 F (15.6 C)
Dew Point: 48.0 F (8.9 C)
Relative Humidity: 64%
Pressure (altimeter): 30.04 in. Hg (1017 hPa)
ob: KTPH 170656Z AUTO 02015KT 10SM CLR 16/09 A3004 RMK AO2 SLP095 T01560089
cycle: 7

Station Type Date Time Source
KTPH TAF 2019/06/17 06:22 UTC NOAA

TAF KTPH 170520Z 1706/1806 VRB06KT P6SM BKN120 BKN250
FM172200 36010G20KT P6SM VCTS SCT100CB BKN200
FM180300 01008KT P6SM SCT100 BKN200

Example: see airport list